sensor_id;sensor_type;location;lat;lon;timestamp;temperature;humidity
43320;DHT22;28914;48.722;9.332;2024-03-06T00:04:17;9.80;86.10
43320;DHT22;28914;48.722;9.332;2024-03-06T00:09:36;9.80;86.20
43320;DHT22;28914;48.722;9.332;2024-03-06T00:14:55;9.80;86.20
43320;DHT22;28914;48.722;9.332;2024-03-06T00:20:14;9.80;86.20
43320;DHT22;28914;48.722;9.332;2024-03-06T00:25:34;9.80;86.30
43320;DHT22;28914;48.722;9.332;2024-03-06T00:30:53;9.80;87.10
43320;DHT22;28914;48.722;9.332;2024-03-06T00:36:12;9.80;86.20
43320;DHT22;28914;48.722;9.332;2024-03-06T00:41:31;9.80;86.10
43320;DHT22;28914;48.722;9.332;2024-03-06T00:46:51;9.80;86.20
43320;DHT22;28914;48.722;9.332;2024-03-06T00:52:10;9.90;86.10
43320;DHT22;28914;48.722;9.332;2024-03-06T00:57:29;9.90;86.00
43320;DHT22;28914;48.722;9.332;2024-03-06T01:02:48;9.90;85.90
43320;DHT22;28914;48.722;9.332;2024-03-06T01:08:08;9.80;85.80
43320;DHT22;28914;48.722;9.332;2024-03-06T01:13:27;9.80;85.80
43320;DHT22;28914;48.722;9.332;2024-03-06T01:18:46;9.70;85.80
43320;DHT22;28914;48.722;9.332;2024-03-06T01:24:05;9.70;85.80
43320;DHT22;28914;48.722;9.332;2024-03-06T01:29:25;9.60;85.80
43320;DHT22;28914;48.722;9.332;2024-03-06T01:34:44;9.60;85.80
43320;DHT22;28914;48.722;9.332;2024-03-06T01:40:03;9.60;85.80
43320;DHT22;28914;48.722;9.332;2024-03-06T01:45:23;9.60;86.00
43320;DHT22;28914;48.722;9.332;2024-03-06T01:50:42;9.60;86.10
43320;DHT22;28914;48.722;9.332;2024-03-06T01:56:04;9.60;86.10
43320;DHT22;28914;48.722;9.332;2024-03-06T02:01:23;9.60;86.30
43320;DHT22;28914;48.722;9.332;2024-03-06T02:06:43;9.60;86.30
43320;DHT22;28914;48.722;9.332;2024-03-06T02:12:02;9.60;86.30
43320;DHT22;28914;48.722;9.332;2024-03-06T02:17:21;9.60;86.30
43320;DHT22;28914;48.722;9.332;2024-03-06T02:22:41;9.60;86.40
43320;DHT22;28914;48.722;9.332;2024-03-06T02:28:00;9.70;86.50
43320;DHT22;28914;48.722;9.332;2024-03-06T02:33:19;9.70;86.40
43320;DHT22;28914;48.722;9.332;2024-03-06T02:38:38;9.70;86.30
43320;DHT22;28914;48.722;9.332;2024-03-06T02:43:58;9.70;86.30
43320;DHT22;28914;48.722;9.332;2024-03-06T02:49:17;9.80;86.20
43320;DHT22;28914;48.722;9.332;2024-03-06T02:54:36;9.80;86.20
43320;DHT22;28914;48.722;9.332;2024-03-06T02:59:56;9.80;86.20
43320;DHT22;28914;48.722;9.332;2024-03-06T03:05:16;9.80;86.20
43320;DHT22;28914;48.722;9.332;2024-03-06T03:10:35;9.80;86.10
43320;DHT22;28914;48.722;9.332;2024-03-06T03:15:54;9.80;86.00
43320;DHT22;28914;48.722;9.332;2024-03-06T03:21:14;9.80;86.70
43320;DHT22;28914;48.722;9.332;2024-03-06T03:26:33;9.80;86.00
43320;DHT22;28914;48.722;9.332;2024-03-06T03:31:53;9.80;86.00
43320;DHT22;28914;48.722;9.332;2024-03-06T03:37:13;9.80;86.80
43320;DHT22;28914;48.722;9.332;2024-03-06T03:42:32;9.70;85.90
43320;DHT22;28914;48.722;9.332;2024-03-06T03:47:51;9.70;85.80
43320;DHT22;28914;48.722;9.332;2024-03-06T03:53:10;9.70;85.80
43320;DHT22;28914;48.722;9.332;2024-03-06T03:58:29;9.60;85.90
43320;DHT22;28914;48.722;9.332;2024-03-06T04:03:48;9.60;85.90
43320;DHT22;28914;48.722;9.332;2024-03-06T04:09:08;9.60;86.00
43320;DHT22;28914;48.722;9.332;2024-03-06T04:14:30;9.60;86.10
43320;DHT22;28914;48.722;9.332;2024-03-06T04:19:49;9.60;86.10
43320;DHT22;28914;48.722;9.332;2024-03-06T04:25:08;9.60;86.30
43320;DHT22;28914;48.722;9.332;2024-03-06T04:30:28;9.60;86.30
43320;DHT22;28914;48.722;9.332;2024-03-06T04:35:47;9.70;86.30
43320;DHT22;28914;48.722;9.332;2024-03-06T04:41:06;9.70;86.60
43320;DHT22;28914;48.722;9.332;2024-03-06T04:46:26;9.70;86.30
43320;DHT22;28914;48.722;9.332;2024-03-06T04:51:45;9.70;86.30
43320;DHT22;28914;48.722;9.332;2024-03-06T04:57:04;9.70;86.30
43320;DHT22;28914;48.722;9.332;2024-03-06T05:02:24;9.70;86.40
43320;DHT22;28914;48.722;9.332;2024-03-06T05:07:45;9.80;86.40
43320;DHT22;28914;48.722;9.332;2024-03-06T05:13:04;9.80;86.40
43320;DHT22;28914;48.722;9.332;2024-03-06T05:18:24;9.80;86.40
43320;DHT22;28914;48.722;9.332;2024-03-06T05:23:43;9.80;86.40
43320;DHT22;28914;48.722;9.332;2024-03-06T05:29:02;9.90;86.30
43320;DHT22;28914;48.722;9.332;2024-03-06T05:34:22;9.90;86.30
43320;DHT22;28914;48.722;9.332;2024-03-06T05:39:41;9.90;86.40
43320;DHT22;28914;48.722;9.332;2024-03-06T05:45:01;9.90;86.40
43320;DHT22;28914;48.722;9.332;2024-03-06T05:50:23;9.90;86.40
43320;DHT22;28914;48.722;9.332;2024-03-06T05:55:43;9.90;86.40
43320;DHT22;28914;48.722;9.332;2024-03-06T06:01:02;9.90;86.40
43320;DHT22;28914;48.722;9.332;2024-03-06T06:06:22;9.90;86.40
43320;DHT22;28914;48.722;9.332;2024-03-06T06:11:42;9.90;86.40
43320;DHT22;28914;48.722;9.332;2024-03-06T06:17:02;10.00;86.50
43320;DHT22;28914;48.722;9.332;2024-03-06T06:22:22;10.00;86.60
43320;DHT22;28914;48.722;9.332;2024-03-06T06:27:41;10.00;86.50
43320;DHT22;28914;48.722;9.332;2024-03-06T06:33:00;10.00;86.70
43320;DHT22;28914;48.722;9.332;2024-03-06T06:38:19;10.00;86.70
43320;DHT22;28914;48.722;9.332;2024-03-06T06:43:39;10.00;86.70
43320;DHT22;28914;48.722;9.332;2024-03-06T06:48:59;10.10;86.80
43320;DHT22;28914;48.722;9.332;2024-03-06T06:54:18;10.10;86.70
43320;DHT22;28914;48.722;9.332;2024-03-06T06:59:37;10.20;86.70
43320;DHT22;28914;48.722;9.332;2024-03-06T07:04:57;10.20;86.60
43320;DHT22;28914;48.722;9.332;2024-03-06T07:10:16;10.20;86.60
43320;DHT22;28914;48.722;9.332;2024-03-06T07:15:35;10.20;86.50
43320;DHT22;28914;48.722;9.332;2024-03-06T07:20:55;10.30;86.60
43320;DHT22;28914;48.722;9.332;2024-03-06T07:26:13;10.40;86.60
43320;DHT22;28914;48.722;9.332;2024-03-06T07:31:33;10.40;87.10
43320;DHT22;28914;48.722;9.332;2024-03-06T07:36:52;10.40;86.30
43320;DHT22;28914;48.722;9.332;2024-03-06T07:42:11;10.40;86.20
43320;DHT22;28914;48.722;9.332;2024-03-06T07:47:30;10.40;86.10
43320;DHT22;28914;48.722;9.332;2024-03-06T07:52:49;10.50;86.10
43320;DHT22;28914;48.722;9.332;2024-03-06T07:58:08;10.50;86.10
43320;DHT22;28914;48.722;9.332;2024-03-06T08:03:28;10.60;86.00
43320;DHT22;28914;48.722;9.332;2024-03-06T08:08:47;10.60;85.90
43320;DHT22;28914;48.722;9.332;2024-03-06T08:14:07;10.70;86.00
43320;DHT22;28914;48.722;9.332;2024-03-06T08:19:26;10.70;86.00
43320;DHT22;28914;48.722;9.332;2024-03-06T08:24:45;10.80;85.80
43320;DHT22;28914;48.722;9.332;2024-03-06T08:30:05;10.90;86.00
43320;DHT22;28914;48.722;9.332;2024-03-06T08:35:24;10.90;85.60
43320;DHT22;28914;48.722;9.332;2024-03-06T08:40:44;11.00;85.50
43320;DHT22;28914;48.722;9.332;2024-03-06T08:46:04;11.00;85.50
43320;DHT22;28914;48.722;9.332;2024-03-06T08:51:23;11.00;85.40
43320;DHT22;28914;48.722;9.332;2024-03-06T08:56:45;11.00;85.10
43320;DHT22;28914;48.722;9.332;2024-03-06T09:02:15;11.00;85.20
43320;DHT22;28914;48.722;9.332;2024-03-06T09:07:34;10.90;85.10
43320;DHT22;28914;48.722;9.332;2024-03-06T09:12:57;11.00;85.40
43320;DHT22;28914;48.722;9.332;2024-03-06T09:18:16;11.00;85.20
43320;DHT22;28914;48.722;9.332;2024-03-06T09:23:35;10.90;85.20
43320;DHT22;28914;48.722;9.332;2024-03-06T09:28:56;10.90;85.20
43320;DHT22;28914;48.722;9.332;2024-03-06T09:34:15;11.00;85.30
43320;DHT22;28914;48.722;9.332;2024-03-06T09:39:35;11.00;85.30
43320;DHT22;28914;48.722;9.332;2024-03-06T09:44:54;11.00;85.20
43320;DHT22;28914;48.722;9.332;2024-03-06T09:50:16;11.00;85.30
43320;DHT22;28914;48.722;9.332;2024-03-06T09:55:36;11.00;85.30
43320;DHT22;28914;48.722;9.332;2024-03-06T10:00:59;11.00;85.20
43320;DHT22;28914;48.722;9.332;2024-03-06T10:06:19;11.00;85.00
43320;DHT22;28914;48.722;9.332;2024-03-06T10:11:40;11.00;85.10
43320;DHT22;28914;48.722;9.332;2024-03-06T10:17:00;11.00;85.20
43320;DHT22;28914;48.722;9.332;2024-03-06T10:22:20;11.00;85.50
43320;DHT22;28914;48.722;9.332;2024-03-06T10:27:39;11.00;85.40
43320;DHT22;28914;48.722;9.332;2024-03-06T10:32:58;11.10;85.20
43320;DHT22;28914;48.722;9.332;2024-03-06T10:38:20;11.00;85.20
43320;DHT22;28914;48.722;9.332;2024-03-06T10:43:42;11.00;85.20
43320;DHT22;28914;48.722;9.332;2024-03-06T10:49:02;11.00;85.50
43320;DHT22;28914;48.722;9.332;2024-03-06T10:54:23;11.10;85.90
43320;DHT22;28914;48.722;9.332;2024-03-06T10:59:45;11.20;86.20
43320;DHT22;28914;48.722;9.332;2024-03-06T11:05:05;11.30;86.10
43320;DHT22;28914;48.722;9.332;2024-03-06T11:10:32;11.30;86.10
43320;DHT22;28914;48.722;9.332;2024-03-06T11:15:52;11.50;86.20
43320;DHT22;28914;48.722;9.332;2024-03-06T11:26:35;11.70;85.70
43320;DHT22;28914;48.722;9.332;2024-03-06T11:32:07;11.80;85.30
43320;DHT22;28914;48.722;9.332;2024-03-06T11:37:27;11.80;85.20
43320;DHT22;28914;48.722;9.332;2024-03-06T11:42:46;11.90;86.00
43320;DHT22;28914;48.722;9.332;2024-03-06T11:48:08;11.90;84.80
43320;DHT22;28914;48.722;9.332;2024-03-06T11:53:34;11.90;84.70
43320;DHT22;28914;48.722;9.332;2024-03-06T11:58:55;12.00;84.70
43320;DHT22;28914;48.722;9.332;2024-03-06T12:04:14;11.90;84.20
43320;DHT22;28914;48.722;9.332;2024-03-06T12:09:34;11.90;84.20
43320;DHT22;28914;48.722;9.332;2024-03-06T12:14:59;11.80;84.10
43320;DHT22;28914;48.722;9.332;2024-03-06T12:20:24;11.80;84.40
43320;DHT22;28914;48.722;9.332;2024-03-06T12:25:44;11.70;84.60
43320;DHT22;28914;48.722;9.332;2024-03-06T12:31:04;11.70;84.70
43320;DHT22;28914;48.722;9.332;2024-03-06T12:36:27;11.60;84.60
43320;DHT22;28914;48.722;9.332;2024-03-06T12:41:46;11.60;84.80
43320;DHT22;28914;48.722;9.332;2024-03-06T12:47:05;11.60;85.00
43320;DHT22;28914;48.722;9.332;2024-03-06T12:52:25;11.40;84.80
43320;DHT22;28914;48.722;9.332;2024-03-06T12:57:44;11.60;85.00
43320;DHT22;28914;48.722;9.332;2024-03-06T13:03:04;11.60;85.10
43320;DHT22;28914;48.722;9.332;2024-03-06T13:08:24;11.60;85.20
43320;DHT22;28914;48.722;9.332;2024-03-06T13:13:43;11.70;85.30
43320;DHT22;28914;48.722;9.332;2024-03-06T13:19:02;11.70;85.40
43320;DHT22;28914;48.722;9.332;2024-03-06T13:24:22;11.80;85.50
43320;DHT22;28914;48.722;9.332;2024-03-06T13:29:41;11.80;85.20
43320;DHT22;28914;48.722;9.332;2024-03-06T13:35:01;11.80;85.20
43320;DHT22;28914;48.722;9.332;2024-03-06T13:40:20;11.80;84.90
43320;DHT22;28914;48.722;9.332;2024-03-06T13:45:51;11.90;84.80
43320;DHT22;28914;48.722;9.332;2024-03-06T13:51:10;11.90;84.70
43320;DHT22;28914;48.722;9.332;2024-03-06T13:56:29;11.90;84.80
43320;DHT22;28914;48.722;9.332;2024-03-06T14:01:48;11.90;85.00
43320;DHT22;28914;48.722;9.332;2024-03-06T14:07:08;11.90;84.80
43320;DHT22;28914;48.722;9.332;2024-03-06T14:12:27;11.90;84.70
43320;DHT22;28914;48.722;9.332;2024-03-06T14:17:46;12.00;84.70
43320;DHT22;28914;48.722;9.332;2024-03-06T14:23:05;11.90;84.70
43320;DHT22;28914;48.722;9.332;2024-03-06T14:28:25;11.90;84.70
43320;DHT22;28914;48.722;9.332;2024-03-06T14:33:44;11.90;84.50
43320;DHT22;28914;48.722;9.332;2024-03-06T14:39:03;11.80;84.50
43320;DHT22;28914;48.722;9.332;2024-03-06T14:44:22;11.80;84.60
43320;DHT22;28914;48.722;9.332;2024-03-06T14:49:44;11.80;84.60
43320;DHT22;28914;48.722;9.332;2024-03-06T14:55:04;11.80;84.90
43320;DHT22;28914;48.722;9.332;2024-03-06T15:00:27;11.70;85.00
43320;DHT22;28914;48.722;9.332;2024-03-06T15:05:47;11.80;85.20
43320;DHT22;28914;48.722;9.332;2024-03-06T15:11:07;11.70;85.20
43320;DHT22;28914;48.722;9.332;2024-03-06T15:16:27;11.70;85.20
43320;DHT22;28914;48.722;9.332;2024-03-06T15:21:46;11.70;85.30
43320;DHT22;28914;48.722;9.332;2024-03-06T15:27:05;11.80;85.40
43320;DHT22;28914;48.722;9.332;2024-03-06T15:32:25;11.80;85.40
43320;DHT22;28914;48.722;9.332;2024-03-06T15:37:44;11.80;85.50
43320;DHT22;28914;48.722;9.332;2024-03-06T15:43:03;11.80;85.40
43320;DHT22;28914;48.722;9.332;2024-03-06T15:48:24;11.80;85.40
43320;DHT22;28914;48.722;9.332;2024-03-06T15:53:43;11.80;85.50
43320;DHT22;28914;48.722;9.332;2024-03-06T15:59:02;11.80;85.50
43320;DHT22;28914;48.722;9.332;2024-03-06T16:04:22;11.70;85.60
43320;DHT22;28914;48.722;9.332;2024-03-06T16:09:41;11.70;85.50
43320;DHT22;28914;48.722;9.332;2024-03-06T16:15:01;11.70;85.70
43320;DHT22;28914;48.722;9.332;2024-03-06T16:20:21;11.70;85.80
43320;DHT22;28914;48.722;9.332;2024-03-06T16:25:40;11.60;85.80
43320;DHT22;28914;48.722;9.332;2024-03-06T16:30:59;11.60;85.90
43320;DHT22;28914;48.722;9.332;2024-03-06T16:36:18;11.60;86.00
43320;DHT22;28914;48.722;9.332;2024-03-06T16:41:40;11.50;85.90
43320;DHT22;28914;48.722;9.332;2024-03-06T16:47:00;11.60;86.10
43320;DHT22;28914;48.722;9.332;2024-03-06T16:52:19;11.50;86.10
43320;DHT22;28914;48.722;9.332;2024-03-06T16:57:40;11.50;86.30
43320;DHT22;28914;48.722;9.332;2024-03-06T17:03:00;11.50;86.30
43320;DHT22;28914;48.722;9.332;2024-03-06T17:08:19;11.50;86.30
43320;DHT22;28914;48.722;9.332;2024-03-06T17:13:38;11.50;86.30
43320;DHT22;28914;48.722;9.332;2024-03-06T17:18:58;11.50;86.30
43320;DHT22;28914;48.722;9.332;2024-03-06T17:24:21;11.50;86.30
43320;DHT22;28914;48.722;9.332;2024-03-06T17:29:40;11.50;86.30
43320;DHT22;28914;48.722;9.332;2024-03-06T17:35:00;11.50;86.40
43320;DHT22;28914;48.722;9.332;2024-03-06T17:40:20;11.40;86.40
43320;DHT22;28914;48.722;9.332;2024-03-06T17:45:39;11.40;86.60
43320;DHT22;28914;48.722;9.332;2024-03-06T17:50:59;11.30;86.60
43320;DHT22;28914;48.722;9.332;2024-03-06T17:56:18;11.30;86.70
43320;DHT22;28914;48.722;9.332;2024-03-06T18:01:37;11.30;86.80
43320;DHT22;28914;48.722;9.332;2024-03-06T18:06:57;11.20;86.90
43320;DHT22;28914;48.722;9.332;2024-03-06T18:12:16;11.20;87.00
43320;DHT22;28914;48.722;9.332;2024-03-06T18:17:35;11.20;87.20
43320;DHT22;28914;48.722;9.332;2024-03-06T18:22:56;11.20;87.20
43320;DHT22;28914;48.722;9.332;2024-03-06T18:28:17;11.20;88.20
43320;DHT22;28914;48.722;9.332;2024-03-06T18:33:36;11.20;87.50
43320;DHT22;28914;48.722;9.332;2024-03-06T18:38:56;11.10;87.40
43320;DHT22;28914;48.722;9.332;2024-03-06T18:44:16;11.20;87.60
43320;DHT22;28914;48.722;9.332;2024-03-06T18:49:35;11.20;87.60
43320;DHT22;28914;48.722;9.332;2024-03-06T18:54:55;11.20;87.50
43320;DHT22;28914;48.722;9.332;2024-03-06T19:00:16;11.30;87.50
43320;DHT22;28914;48.722;9.332;2024-03-06T19:05:36;11.30;87.50
43320;DHT22;28914;48.722;9.332;2024-03-06T19:10:55;11.30;87.40
43320;DHT22;28914;48.722;9.332;2024-03-06T19:16:14;11.20;87.40
43320;DHT22;28914;48.722;9.332;2024-03-06T19:21:34;11.20;87.50
43320;DHT22;28914;48.722;9.332;2024-03-06T19:26:53;11.20;87.50
43320;DHT22;28914;48.722;9.332;2024-03-06T19:32:12;11.10;87.50
43320;DHT22;28914;48.722;9.332;2024-03-06T19:37:32;11.10;87.70
43320;DHT22;28914;48.722;9.332;2024-03-06T19:42:52;11.10;87.60
43320;DHT22;28914;48.722;9.332;2024-03-06T19:48:12;11.10;87.70
43320;DHT22;28914;48.722;9.332;2024-03-06T19:53:34;11.00;87.70
43320;DHT22;28914;48.722;9.332;2024-03-06T19:58:54;11.00;87.70
43320;DHT22;28914;48.722;9.332;2024-03-06T20:04:13;11.00;87.70
43320;DHT22;28914;48.722;9.332;2024-03-06T20:09:32;11.00;87.80
43320;DHT22;28914;48.722;9.332;2024-03-06T20:14:51;11.10;88.80
43320;DHT22;28914;48.722;9.332;2024-03-06T20:20:11;11.00;87.90
43320;DHT22;28914;48.722;9.332;2024-03-06T20:25:31;11.00;87.80
43320;DHT22;28914;48.722;9.332;2024-03-06T20:30:51;11.00;87.80
43320;DHT22;28914;48.722;9.332;2024-03-06T20:36:11;11.10;87.90
43320;DHT22;28914;48.722;9.332;2024-03-06T20:41:31;11.10;87.90
43320;DHT22;28914;48.722;9.332;2024-03-06T20:46:50;11.10;87.80
43320;DHT22;28914;48.722;9.332;2024-03-06T20:52:09;11.20;87.80
43320;DHT22;28914;48.722;9.332;2024-03-06T20:57:28;11.20;87.70
43320;DHT22;28914;48.722;9.332;2024-03-06T21:02:48;11.20;87.60
43320;DHT22;28914;48.722;9.332;2024-03-06T21:08:08;11.20;87.60
43320;DHT22;28914;48.722;9.332;2024-03-06T21:13:27;11.20;87.60
43320;DHT22;28914;48.722;9.332;2024-03-06T21:18:46;11.20;87.50
43320;DHT22;28914;48.722;9.332;2024-03-06T21:24:05;11.20;87.40
43320;DHT22;28914;48.722;9.332;2024-03-06T21:29:26;11.10;87.30
43320;DHT22;28914;48.722;9.332;2024-03-06T21:34:45;11.10;87.40
43320;DHT22;28914;48.722;9.332;2024-03-06T21:40:05;11.10;87.40
43320;DHT22;28914;48.722;9.332;2024-03-06T21:45:27;11.10;87.50
43320;DHT22;28914;48.722;9.332;2024-03-06T21:50:46;11.10;87.50
43320;DHT22;28914;48.722;9.332;2024-03-06T21:56:09;11.10;87.50
43320;DHT22;28914;48.722;9.332;2024-03-06T22:01:31;11.10;87.40
43320;DHT22;28914;48.722;9.332;2024-03-06T22:06:50;11.00;87.30
43320;DHT22;28914;48.722;9.332;2024-03-06T22:12:10;11.00;87.40
43320;DHT22;28914;48.722;9.332;2024-03-06T22:17:29;11.00;87.50
43320;DHT22;28914;48.722;9.332;2024-03-06T22:22:49;11.00;87.50
43320;DHT22;28914;48.722;9.332;2024-03-06T22:28:08;11.00;87.40
43320;DHT22;28914;48.722;9.332;2024-03-06T22:33:30;10.90;87.10
43320;DHT22;28914;48.722;9.332;2024-03-06T22:38:49;10.90;87.00
43320;DHT22;28914;48.722;9.332;2024-03-06T22:44:08;10.80;87.00
43320;DHT22;28914;48.722;9.332;2024-03-06T22:49:27;10.70;87.30
43320;DHT22;28914;48.722;9.332;2024-03-06T22:54:47;10.70;87.60
43320;DHT22;28914;48.722;9.332;2024-03-06T23:00:06;10.70;87.70
43320;DHT22;28914;48.722;9.332;2024-03-06T23:05:39;10.70;87.80
43320;DHT22;28914;48.722;9.332;2024-03-06T23:10:58;10.70;87.80
43320;DHT22;28914;48.722;9.332;2024-03-06T23:16:18;10.60;87.40
43320;DHT22;28914;48.722;9.332;2024-03-06T23:21:38;10.50;87.20
43320;DHT22;28914;48.722;9.332;2024-03-06T23:26:57;10.50;87.30
43320;DHT22;28914;48.722;9.332;2024-03-06T23:32:17;10.40;87.40
43320;DHT22;28914;48.722;9.332;2024-03-06T23:37:36;10.30;87.50
43320;DHT22;28914;48.722;9.332;2024-03-06T23:42:55;10.30;87.60
43320;DHT22;28914;48.722;9.332;2024-03-06T23:48:16;10.20;87.60
43320;DHT22;28914;48.722;9.332;2024-03-06T23:53:35;10.10;87.40
43320;DHT22;28914;48.722;9.332;2024-03-06T23:58:54;10.00;87.30
